createdAt,value
2023-05-10T00:00:40.333Z,94.29
2023-05-10T00:01:40.351Z,94.70
2023-05-10T00:02:40.542Z,94.79
2023-05-10T00:03:40.386Z,94.94
2023-05-10T00:04:40.300Z,94.94
2023-05-10T00:05:40.309Z,95.04
2023-05-10T00:06:40.284Z,96.10
2023-05-10T00:07:40.342Z,96.15
2023-05-10T00:08:40.288Z,96.20
2023-05-10T00:09:40.281Z,96.00
2023-05-10T00:10:40.254Z,96.15
2023-05-10T00:11:40.250Z,95.86
2023-05-10T00:12:40.242Z,95.25
2023-05-10T00:13:40.247Z,95.45
2023-05-10T00:14:40.227Z,95.35
2023-05-10T00:15:40.268Z,95.14
2023-05-10T00:16:40.261Z,94.64
2023-05-10T00:17:40.230Z,95.59
2023-05-10T00:18:40.197Z,95.19
2023-05-10T00:19:40.190Z,95.25
2023-05-10T00:22:05.745Z,95.29
2023-05-10T00:23:05.744Z,95.39
2023-05-10T00:24:06.820Z,95.59
2023-05-10T00:25:06.818Z,95.59
2023-05-10T00:26:06.803Z,95.74
2023-05-10T00:27:06.806Z,96.15
2023-05-10T00:28:06.787Z,96.41
2023-05-10T00:29:06.783Z,96.35
2023-05-10T00:30:06.805Z,96.51
2023-05-10T00:31:06.768Z,96.10
2023-05-10T00:32:06.796Z,96.10
2023-05-10T00:33:06.769Z,95.90
2023-05-10T00:34:06.762Z,95.70
2023-05-10T00:35:06.745Z,95.90
2023-05-10T00:36:06.736Z,95.59
2023-05-10T00:37:06.725Z,95.50
2023-05-10T00:38:06.725Z,95.59
2023-05-10T00:39:06.704Z,95.39
2023-05-10T00:40:06.688Z,95.29
2023-05-10T00:41:07.218Z,95.50
2023-05-10T00:42:06.682Z,95.29
2023-05-10T00:43:06.661Z,95.50
2023-05-10T00:44:06.655Z,95.39
2023-05-10T00:45:06.647Z,95.29
2023-05-10T00:46:06.726Z,95.29
2023-05-10T00:47:06.627Z,95.29
2023-05-10T00:48:06.706Z,95.39
2023-05-10T00:49:06.615Z,95.59
2023-05-10T00:50:06.617Z,95.84
2023-05-10T00:51:06.610Z,96.10
2023-05-10T00:52:06.592Z,96.20
2023-05-10T00:53:06.589Z,96.20
2023-05-10T00:54:06.578Z,96.10
2023-05-10T00:55:06.572Z,96.20
2023-05-10T00:56:06.575Z,96.20
2023-05-10T00:57:06.552Z,96.15
2023-05-10T00:58:06.541Z,96.10
2023-05-10T00:59:06.535Z,97.11
2023-05-10T01:00:07.527Z,96.30
2023-05-10T01:01:06.548Z,95.86
2023-05-10T01:02:06.523Z,95.65
2023-05-10T01:03:06.636Z,96.26
2023-05-10T01:04:06.519Z,95.95
2023-05-10T01:05:06.569Z,95.90
2023-05-10T01:06:06.494Z,95.86
2023-05-10T01:07:06.480Z,95.45
2023-05-10T01:08:06.464Z,95.65
2023-05-10T01:09:06.457Z,95.65
2023-05-10T01:10:06.455Z,95.55
2023-05-10T01:11:06.453Z,96.06
2023-05-10T01:12:06.530Z,96.36
2023-05-10T01:13:06.476Z,96.97
2023-05-10T01:14:06.451Z,97.17
2023-05-10T01:15:06.412Z,96.81
2023-05-10T01:16:06.468Z,97.22
2023-05-10T01:17:06.403Z,97.22
2023-05-10T01:18:06.417Z,97.38
2023-05-10T01:19:06.370Z,98.33
2023-05-10T01:20:06.379Z,97.92
2023-05-10T01:21:06.360Z,98.63
2023-05-10T01:22:06.353Z,97.72
2023-05-10T01:23:06.350Z,97.72
2023-05-10T01:24:06.335Z,97.32
2023-05-10T01:25:06.326Z,98.03
2023-05-10T01:26:06.322Z,98.38
2023-05-10T01:27:06.306Z,98.23
2023-05-10T01:28:06.329Z,97.67
2023-05-10T01:29:06.291Z,97.92
2023-05-10T01:30:15.612Z,97.11
2023-05-10T01:31:08.302Z,97.32
2023-05-10T01:32:07.128Z,98.13
2023-05-10T01:33:06.328Z,97.83
2023-05-10T01:34:06.260Z,97.92
2023-05-10T01:35:06.237Z,98.07
2023-05-10T01:36:06.237Z,98.07
2023-05-10T01:37:06.237Z,98.28
2023-05-10T01:38:06.231Z,98.18
2023-05-10T01:39:06.210Z,98.18
2023-05-10T01:40:06.210Z,98.18
2023-05-10T01:41:06.182Z,98.23
2023-05-10T01:42:07.195Z,97.67
2023-05-10T01:43:06.184Z,98.07
2023-05-10T01:44:06.183Z,97.97
2023-05-10T01:45:06.170Z,98.07
2023-05-10T01:46:06.154Z,97.87
2023-05-10T01:47:06.149Z,97.81
2023-05-10T01:48:06.173Z,97.26
2023-05-10T01:49:06.149Z,97.97
2023-05-10T01:50:06.121Z,97.92
2023-05-10T01:51:06.108Z,97.36
2023-05-10T01:52:06.106Z,97.67
2023-05-10T01:53:06.098Z,97.92
2023-05-10T01:54:06.093Z,97.77
2023-05-10T01:55:06.078Z,97.36
2023-05-10T01:56:06.069Z,97.16
2023-05-10T01:57:06.065Z,97.77
2023-05-10T01:58:06.063Z,97.67
2023-05-10T01:59:06.079Z,97.51
2023-05-10T02:00:06.633Z,97.51
2023-05-10T02:01:06.123Z,97.81
2023-05-10T02:02:06.020Z,97.92
2023-05-10T02:03:06.150Z,97.56
2023-05-10T02:04:06.041Z,97.71
2023-05-10T02:05:06.002Z,97.56
2023-05-10T02:06:05.991Z,97.41
2023-05-10T02:07:05.984Z,96.96
2023-05-10T02:08:05.982Z,97.61
2023-05-10T02:09:06.006Z,97.31
2023-05-10T02:10:05.978Z,97.31
2023-05-10T02:11:05.957Z,97.11
2023-05-10T02:12:05.943Z,97.47
2023-05-10T02:13:05.966Z,97.20
2023-05-10T02:14:05.928Z,97.20
2023-05-10T02:15:05.919Z,97.31
2023-05-10T02:16:05.977Z,96.90
2023-05-10T02:17:05.900Z,97.31
2023-05-10T02:18:05.942Z,97.71
2023-05-10T02:19:05.885Z,98.02
2023-05-10T02:20:06.710Z,97.81
2023-05-10T02:21:05.867Z,97.92
2023-05-10T02:22:05.863Z,98.02
2023-05-10T02:23:05.870Z,97.81
2023-05-10T02:24:05.842Z,97.81
2023-05-10T02:25:06.100Z,98.02
2023-05-10T02:26:05.832Z,97.81
2023-05-10T02:27:05.832Z,98.02
2023-05-10T02:28:05.814Z,98.32
2023-05-10T02:29:05.829Z,98.32
2023-05-10T02:30:05.817Z,98.83
2023-05-10T02:31:05.810Z,98.63
2023-05-10T02:32:05.803Z,99.04
2023-05-10T02:33:05.782Z,98.93
2023-05-10T02:34:05.754Z,98.73
2023-05-10T02:35:06.779Z,98.93
2023-05-10T02:36:05.773Z,98.83
2023-05-10T02:37:05.736Z,98.93
2023-05-10T02:38:05.747Z,99.13
2023-05-10T02:39:05.742Z,99.24
2023-05-10T02:40:05.756Z,99.89
2023-05-10T02:41:05.718Z,99.85
2023-05-10T02:42:05.732Z,99.64
2023-05-10T02:43:05.695Z,99.99
2023-05-10T02:44:05.680Z,99.99
2023-05-10T02:45:05.679Z,99.99
2023-05-10T02:46:05.781Z,99.95
2023-05-10T02:47:05.645Z,99.99
2023-05-10T02:48:06.662Z,99.99
2023-05-10T02:49:05.652Z,99.08
2023-05-10T02:50:05.658Z,98.63
2023-05-10T02:51:05.639Z,97.92
2023-05-10T02:52:06.224Z,97.81
2023-05-10T02:53:05.625Z,97.92
2023-05-10T02:54:05.614Z,97.71
2023-05-10T02:55:05.584Z,97.45
2023-05-10T02:56:05.616Z,97.96
2023-05-10T02:57:05.621Z,98.37
2023-05-10T02:58:05.578Z,97.96
2023-05-10T02:59:05.553Z,98.07
2023-05-10T03:00:05.558Z,98.47
2023-05-10T03:01:06.182Z,99.33
2023-05-10T03:02:05.525Z,99.13
2023-05-10T03:03:05.584Z,99.33
2023-05-10T03:04:05.604Z,99.13
2023-05-10T03:05:05.512Z,99.13
2023-05-10T03:06:05.505Z,98.52
2023-05-10T03:07:05.489Z,98.72
2023-05-10T03:08:05.482Z,98.32
2023-05-10T03:09:05.478Z,98.52
2023-05-10T03:10:05.515Z,98.32
2023-05-10T03:11:05.495Z,98.62
2023-05-10T03:12:05.510Z,97.91
2023-05-10T03:13:05.476Z,97.71
2023-05-10T03:14:05.447Z,98.32
2023-05-10T03:15:05.452Z,98.21
2023-05-10T03:16:05.576Z,97.71
2023-05-10T03:17:05.425Z,98.05
2023-05-10T03:18:05.428Z,98.36
2023-05-10T03:19:05.389Z,97.50
2023-05-10T03:20:05.386Z,98.05
2023-05-10T03:21:05.398Z,97.96
2023-05-10T03:22:05.388Z,97.71
2023-05-10T03:23:05.366Z,97.60
2023-05-10T03:24:05.365Z,98.01
2023-05-10T03:25:05.371Z,97.60
2023-05-10T03:26:05.358Z,97.75
2023-05-10T03:27:05.373Z,97.75
2023-05-10T03:28:05.341Z,98.11
2023-05-10T03:29:05.332Z,98.36
2023-05-10T03:30:05.312Z,98.21
2023-05-10T03:31:05.336Z,98.01
2023-05-10T03:32:05.292Z,98.16
2023-05-10T03:33:05.318Z,97.91
2023-05-10T03:34:05.284Z,98.46
2023-05-10T03:35:05.269Z,98.16
2023-05-10T03:36:05.275Z,97.80
2023-05-10T03:37:06.177Z,97.80
2023-05-10T03:38:05.255Z,98.36
2023-05-10T03:39:05.229Z,97.75
2023-05-10T03:40:06.245Z,98.16
2023-05-10T03:41:05.767Z,98.21
2023-05-10T03:42:05.225Z,97.71
2023-05-10T03:43:05.225Z,98.41
2023-05-10T03:44:05.210Z,98.77
2023-05-10T03:45:05.203Z,98.77
2023-05-10T03:46:05.212Z,98.66
2023-05-10T03:47:05.205Z,98.46
2023-05-10T03:48:05.241Z,99.07
2023-05-10T03:49:05.182Z,98.46
2023-05-10T03:50:05.163Z,98.56
2023-05-10T03:51:05.675Z,98.46
2023-05-10T03:52:05.142Z,98.26
2023-05-10T03:53:05.150Z,98.05
2023-05-10T03:54:05.126Z,97.96
2023-05-10T03:55:05.148Z,97.75
2023-05-10T03:56:05.113Z,97.85
2023-05-10T03:57:05.109Z,97.75
2023-05-10T03:58:05.112Z,97.75
2023-05-10T03:59:05.096Z,97.65
2023-05-10T04:00:05.088Z,96.94
2023-05-10T04:01:05.076Z,96.73
2023-05-10T04:02:05.068Z,96.78
2023-05-10T04:03:05.157Z,97.24
2023-05-10T04:04:05.051Z,96.47
2023-05-10T04:05:05.036Z,96.63
2023-05-10T04:06:05.882Z,96.37
2023-05-10T04:07:05.027Z,96.68
2023-05-10T04:08:05.017Z,95.46
2023-05-10T04:09:05.673Z,95.82
2023-05-10T04:10:05.000Z,95.41
2023-05-10T04:11:05.022Z,95.51
2023-05-10T04:12:05.011Z,95.66
2023-05-10T04:13:05.090Z,95.51
2023-05-10T04:14:04.972Z,95.46
2023-05-10T04:15:05.008Z,95.92
2023-05-10T04:16:05.216Z,95.97
2023-05-10T04:17:05.002Z,95.82
2023-05-10T04:18:06.631Z,95.66
2023-05-10T04:19:04.927Z,96.17
2023-05-10T04:20:05.741Z,95.72
2023-05-10T04:21:04.926Z,95.46
2023-05-10T04:22:04.923Z,95.41
2023-05-10T04:23:04.906Z,96.02
2023-05-10T04:24:04.900Z,96.23
2023-05-10T04:25:05.050Z,96.02
2023-05-10T04:26:04.863Z,95.72
2023-05-10T04:27:04.900Z,95.56
2023-05-10T04:28:04.859Z,95.62
2023-05-10T04:29:04.849Z,95.97
2023-05-10T04:30:04.832Z,95.76
2023-05-10T04:31:06.754Z,95.76
2023-05-10T04:32:04.849Z,95.66
2023-05-10T04:33:05.749Z,96.33
2023-05-10T04:34:05.760Z,96.07
2023-05-10T04:35:04.798Z,95.92
2023-05-10T04:36:04.801Z,95.72
2023-05-10T04:37:04.823Z,95.56
2023-05-10T04:38:04.788Z,95.76
2023-05-10T04:39:04.794Z,95.76
2023-05-10T04:40:04.753Z,95.76
2023-05-10T04:41:04.862Z,95.92
2023-05-10T04:42:04.745Z,96.27
2023-05-10T04:43:04.735Z,96.53
2023-05-10T04:44:04.728Z,96.88
2023-05-10T04:45:04.780Z,96.78
2023-05-10T04:46:04.750Z,96.47
2023-05-10T04:47:04.704Z,95.92
2023-05-10T04:48:04.799Z,95.51
2023-05-10T04:49:04.701Z,95.01
2023-05-10T04:50:04.706Z,95.62
2023-05-10T04:51:05.738Z,95.62
2023-05-10T04:52:04.667Z,95.51
2023-05-10T04:53:04.668Z,95.31
2023-05-10T04:54:06.427Z,95.62
2023-05-10T04:55:05.653Z,95.62
2023-05-10T04:56:04.623Z,95.72
2023-05-10T04:57:04.619Z,96.12
2023-05-10T04:58:04.623Z,95.41
2023-05-10T04:59:04.606Z,95.62
2023-05-10T05:00:04.594Z,95.62
2023-05-10T05:01:04.593Z,95.51
2023-05-10T05:02:04.685Z,95.41
2023-05-10T05:03:04.653Z,95.51
2023-05-10T05:04:05.263Z,94.90
2023-05-10T05:05:04.560Z,94.90
2023-05-10T05:06:04.566Z,94.90
2023-05-10T05:07:04.547Z,95.21
2023-05-10T05:08:04.528Z,95.21
2023-05-10T05:09:04.532Z,95.21
2023-05-10T05:10:04.537Z,94.70
2023-05-10T05:11:04.511Z,95.10
2023-05-10T05:12:04.500Z,95.10
2023-05-10T05:13:04.528Z,95.10
2023-05-10T05:14:04.507Z,95.62
2023-05-10T05:15:04.475Z,95.06
2023-05-10T05:16:04.524Z,94.50
2023-05-10T05:17:04.470Z,95.21
2023-05-10T05:18:04.459Z,95.10
2023-05-10T05:19:05.465Z,95.10
2023-05-10T05:20:05.265Z,94.96
2023-05-10T05:21:04.434Z,94.70
2023-05-10T05:22:04.444Z,95.10
2023-05-10T05:23:04.448Z,95.01
2023-05-10T05:24:04.472Z,95.01
2023-05-10T05:25:04.441Z,95.26
2023-05-10T05:26:04.410Z,95.47
2023-05-10T05:27:05.182Z,93.74
2023-05-10T05:28:04.393Z,94.35
2023-05-10T05:29:04.376Z,94.31
2023-05-10T05:30:04.401Z,94.82
2023-05-10T05:31:04.377Z,94.31
2023-05-10T05:32:04.648Z,94.31
2023-05-10T05:33:04.406Z,94.21
2023-05-10T05:34:04.342Z,94.41
2023-05-10T05:35:04.330Z,94.35
2023-05-10T05:36:04.405Z,94.10
2023-05-10T05:37:04.332Z,94.10
2023-05-10T05:38:04.294Z,93.29
2023-05-10T05:39:05.301Z,93.49
2023-05-10T05:40:04.286Z,93.65
2023-05-10T05:41:04.267Z,92.28
2023-05-10T05:42:04.256Z,91.83
2023-05-10T05:43:04.262Z,91.73
2023-05-10T05:44:04.255Z,92.24
2023-05-10T05:45:04.290Z,92.03
2023-05-10T05:46:04.239Z,91.58
2023-05-10T05:47:04.224Z,91.38
2023-05-10T05:48:04.225Z,91.08
2023-05-10T05:49:04.199Z,91.17
2023-05-10T05:50:04.201Z,91.58
2023-05-10T05:51:07.089Z,91.83
2023-05-10T05:52:04.181Z,91.89
2023-05-10T05:53:04.183Z,91.73
2023-05-10T05:54:04.819Z,91.58
2023-05-10T05:55:04.179Z,91.99
2023-05-10T05:56:04.140Z,90.97
2023-05-10T05:57:04.139Z,91.24
2023-05-10T05:58:05.119Z,90.32
2023-05-10T05:59:05.127Z,88.90
2023-05-10T06:00:04.133Z,89.26
2023-05-10T06:01:04.109Z,88.66
2023-05-10T06:02:04.147Z,88.35
2023-05-10T06:03:04.249Z,87.60
2023-05-10T06:04:04.199Z,87.81
2023-05-10T06:05:04.103Z,88.11
2023-05-10T06:06:04.070Z,88.21
2023-05-10T06:07:04.064Z,87.60
2023-05-10T06:08:04.056Z,87.26
2023-05-10T06:09:04.047Z,87.05
2023-05-10T06:10:04.053Z,86.76
2023-05-10T06:11:04.034Z,85.84
2023-05-10T06:12:04.018Z,85.16
2023-05-10T06:13:04.096Z,85.36
2023-05-10T06:14:03.999Z,85.19
2023-05-10T06:15:07.025Z,85.16
2023-05-10T06:16:04.018Z,85.66
2023-05-10T06:17:04.022Z,85.46
2023-05-10T06:18:04.075Z,85.25
2023-05-10T06:19:03.975Z,85.25
2023-05-10T06:20:03.987Z,84.51
2023-05-10T06:21:03.956Z,84.85
2023-05-10T06:22:03.954Z,84.85
2023-05-10T06:23:03.962Z,84.51
2023-05-10T06:24:04.708Z,85.02
2023-05-10T06:25:04.168Z,84.61
2023-05-10T06:26:03.913Z,83.70
2023-05-10T06:27:03.916Z,83.15
2023-05-10T06:28:03.912Z,82.75
2023-05-10T06:29:03.886Z,82.51
2023-05-10T06:30:15.099Z,81.20
2023-05-10T06:31:05.885Z,80.79
2023-05-10T06:32:03.857Z,80.29
2023-05-10T06:33:03.898Z,80.25
2023-05-10T06:34:03.855Z,80.21
2023-05-10T06:35:03.846Z,80.11
2023-05-10T06:36:03.823Z,79.30
2023-05-10T06:37:03.819Z,78.19
2023-05-10T06:38:03.812Z,78.16
2023-05-10T06:39:03.802Z,78.46
2023-05-10T06:40:03.848Z,78.12
2023-05-10T06:41:03.783Z,77.42
2023-05-10T06:42:03.780Z,77.21
2023-05-10T06:43:03.780Z,77.11
2023-05-10T06:44:03.769Z,77.01
2023-05-10T06:45:03.792Z,76.47
2023-05-10T06:46:03.776Z,76.61
2023-05-10T06:47:05.695Z,76.61
2023-05-10T06:48:03.819Z,77.21
2023-05-10T06:49:03.740Z,77.48
2023-05-10T06:50:03.709Z,77.08
2023-05-10T06:51:04.710Z,75.80
2023-05-10T06:52:03.722Z,75.16
2023-05-10T06:53:03.700Z,75.40
2023-05-10T06:54:03.674Z,75.76
2023-05-10T06:55:03.801Z,75.76
2023-05-10T06:56:04.536Z,75.87
2023-05-10T06:57:10.770Z,75.96
2023-05-10T06:58:04.654Z,75.26
2023-05-10T06:59:03.645Z,75.76
2023-05-10T07:00:03.703Z,75.50
2023-05-10T07:01:03.704Z,75.70
2023-05-10T07:02:05.367Z,76.31
2023-05-10T07:03:03.655Z,76.04
2023-05-10T07:04:03.596Z,75.94
2023-05-10T07:05:03.771Z,75.84
2023-05-10T07:06:03.587Z,75.63
2023-05-10T07:07:03.583Z,76.07
2023-05-10T07:08:03.612Z,75.98
2023-05-10T07:09:03.568Z,75.87
2023-05-10T07:10:03.557Z,77.25
2023-05-10T07:11:03.563Z,76.75
2023-05-10T07:12:03.588Z,76.20
2023-05-10T07:13:03.613Z,75.90
2023-05-10T07:14:03.542Z,74.86
2023-05-10T07:15:03.547Z,74.12
2023-05-10T07:16:03.578Z,74.49
2023-05-10T07:17:03.572Z,73.88
2023-05-10T07:18:03.532Z,73.85
2023-05-10T07:19:03.476Z,72.88
2023-05-10T07:20:03.479Z,74.02
2023-05-10T07:21:03.492Z,73.92
2023-05-10T07:22:03.471Z,74.38
2023-05-10T07:23:03.491Z,74.29
2023-05-10T07:24:03.526Z,73.75
2023-05-10T07:25:03.425Z,74.15
2023-05-10T07:26:03.424Z,73.51
2023-05-10T07:27:03.411Z,72.71
2023-05-10T07:28:04.412Z,71.47
2023-05-10T07:29:03.393Z,70.86
2023-05-10T07:30:03.553Z,71.06
2023-05-10T07:31:03.446Z,71.67
2023-05-10T07:32:03.419Z,71.67
2023-05-10T07:33:03.420Z,70.76
2023-05-10T07:34:03.359Z,70.46
2023-05-10T07:35:03.387Z,69.76
2023-05-10T07:36:03.362Z,70.46
2023-05-10T07:37:03.360Z,70.76
2023-05-10T07:38:03.321Z,69.65
2023-05-10T07:39:03.312Z,70.06
2023-05-10T07:40:03.290Z,69.06
2023-05-10T07:41:04.406Z,69.65
2023-05-10T07:42:03.282Z,69.35
2023-05-10T07:43:03.318Z,69.45
2023-05-10T07:44:03.270Z,70.26
2023-05-10T07:45:03.284Z,69.76
2023-05-10T07:46:03.271Z,68.95
2023-05-10T07:47:03.246Z,68.85
2023-05-10T07:48:03.292Z,69.72
2023-05-10T07:49:04.318Z,69.85
2023-05-10T07:50:03.253Z,70.56
2023-05-10T07:51:03.233Z,69.25
2023-05-10T07:52:03.210Z,69.62
2023-05-10T07:53:03.193Z,70.03
2023-05-10T07:54:03.236Z,69.52
2023-05-10T07:55:03.184Z,69.29
2023-05-10T07:56:03.226Z,68.49
2023-05-10T07:57:03.221Z,68.55
2023-05-10T07:58:03.185Z,68.05
2023-05-10T07:59:03.161Z,67.11
2023-05-10T08:00:03.156Z,68.22
2023-05-10T08:01:03.159Z,67.11
2023-05-10T08:02:03.163Z,68.62
2023-05-10T08:03:03.288Z,67.32
2023-05-10T08:04:03.472Z,67.42
2023-05-10T08:05:03.099Z,66.58
2023-05-10T08:06:03.112Z,66.25
2023-05-10T08:07:03.098Z,66.55
2023-05-10T08:08:03.087Z,66.88
2023-05-10T08:09:03.073Z,66.68
2023-05-10T08:10:03.080Z,66.99
2023-05-10T08:11:03.071Z,66.41
2023-05-10T08:12:03.058Z,67.22
2023-05-10T08:13:03.078Z,66.11
2023-05-10T08:14:03.041Z,67.42
2023-05-10T08:15:03.031Z,67.55
2023-05-10T08:16:03.156Z,67.11
2023-05-10T08:17:03.023Z,67.35
2023-05-10T08:18:03.292Z,68.18
2023-05-10T08:19:03.230Z,68.49
2023-05-10T08:20:03.015Z,69.22
2023-05-10T08:21:02.996Z,68.72
2023-05-10T08:22:02.999Z,68.88
2023-05-10T08:23:02.969Z,69.69
2023-05-10T08:24:02.992Z,69.59
2023-05-10T08:25:03.188Z,69.69
2023-05-10T08:26:02.974Z,69.59
2023-05-10T08:27:02.936Z,68.52
2023-05-10T08:28:02.918Z,69.35
2023-05-10T08:29:02.919Z,70.79
2023-05-10T08:30:02.960Z,71.50
2023-05-10T08:31:02.945Z,72.00
2023-05-10T08:32:02.902Z,72.91
2023-05-10T08:33:02.923Z,72.44
2023-05-10T08:34:02.873Z,73.00
2023-05-10T08:35:02.882Z,72.81
2023-05-10T08:36:02.861Z,73.65
2023-05-10T08:37:02.846Z,74.15
2023-05-10T08:38:02.858Z,73.81
2023-05-10T08:39:02.854Z,73.55
2023-05-10T08:40:02.831Z,73.44
2023-05-10T08:41:02.837Z,73.38
2023-05-10T08:42:02.814Z,74.12
2023-05-10T08:43:02.806Z,75.23
2023-05-10T08:44:02.810Z,75.93
2023-05-10T08:45:02.823Z,76.54
2023-05-10T08:46:02.787Z,77.14
2023-05-10T08:47:02.857Z,77.14
2023-05-10T08:48:02.832Z,77.04
2023-05-10T08:49:02.757Z,77.64
2023-05-10T08:50:02.858Z,78.08
2023-05-10T08:51:02.753Z,77.75
2023-05-10T08:52:02.739Z,78.49
2023-05-10T08:53:02.769Z,78.85
2023-05-10T08:54:49.852Z,76.43
2023-05-10T08:55:49.844Z,77.11
2023-05-10T08:56:50.009Z,75.73
2023-05-10T08:57:49.833Z,76.54
2023-05-10T08:58:49.832Z,76.97
2023-05-10T08:59:49.831Z,77.08
2023-05-10T09:00:50.972Z,78.19
2023-05-10T09:01:50.894Z,78.08
2023-05-10T09:02:50.908Z,77.68
2023-05-10T09:03:50.920Z,78.19
2023-05-10T09:04:50.958Z,78.28
2023-05-10T09:05:50.868Z,79.63
2023-05-10T09:06:50.841Z,80.04
2023-05-10T09:07:50.839Z,80.68
2023-05-10T09:08:50.832Z,80.88
2023-05-10T09:09:50.850Z,80.54
2023-05-10T09:10:50.815Z,79.80
2023-05-10T09:11:50.841Z,77.64
2023-05-10T09:12:50.798Z,77.61
2023-05-10T09:13:50.796Z,75.82
2023-05-10T09:14:50.782Z,74.18
2023-05-10T09:15:50.802Z,73.81
2023-05-10T09:16:50.800Z,71.20
2023-05-10T09:17:50.815Z,71.30
2023-05-10T09:18:50.906Z,71.06
2023-05-10T09:19:50.826Z,70.63
2023-05-10T09:20:50.742Z,70.03
2023-05-10T09:21:50.730Z,70.06
2023-05-10T09:22:50.746Z,71.09
2023-05-10T09:23:50.704Z,71.70
2023-05-10T09:24:50.705Z,72.87
2023-05-10T09:25:50.715Z,72.74
2023-05-10T09:26:50.684Z,71.50
2023-05-10T09:27:50.673Z,69.79
2023-05-10T09:28:50.661Z,70.09
2023-05-10T09:29:50.665Z,69.99
2023-05-10T09:30:50.677Z,69.56
2023-05-10T09:31:50.649Z,69.09
2023-05-10T09:32:50.707Z,68.65
2023-05-10T09:33:50.630Z,67.42
2023-05-10T09:34:50.620Z,67.22
2023-05-10T09:35:50.621Z,66.62
2023-05-10T09:36:50.590Z,66.88
2023-05-10T09:37:51.622Z,66.08
2023-05-10T09:38:50.586Z,65.45
2023-05-10T09:39:50.599Z,64.92
2023-05-10T09:40:50.587Z,64.62
2023-05-10T09:41:50.566Z,64.65
2023-05-10T09:42:50.569Z,64.81
2023-05-10T09:43:50.565Z,64.51
2023-05-10T09:44:50.546Z,65.25
2023-05-10T09:45:50.545Z,64.31
2023-05-10T09:46:50.523Z,64.48
2023-05-10T09:47:50.578Z,63.35
2023-05-10T09:48:50.542Z,62.59
2023-05-10T09:49:50.521Z,61.76
2023-05-10T09:50:50.499Z,60.63
2023-05-10T09:51:50.491Z,60.14
2023-05-10T09:52:50.487Z,61.36
2023-05-10T09:53:50.538Z,61.69
2023-05-10T09:54:50.467Z,62.52
2023-05-10T09:55:50.478Z,63.25
2023-05-10T09:56:50.519Z,63.65
2023-05-10T09:57:50.464Z,63.65
2023-05-10T09:58:50.430Z,63.82
2023-05-10T09:59:50.436Z,64.75
2023-05-10T10:00:50.432Z,65.28
2023-05-10T10:01:50.547Z,66.32
2023-05-10T10:02:50.586Z,66.82
2023-05-10T10:03:51.444Z,66.35
2023-05-10T10:04:50.585Z,67.05
2023-05-10T10:05:50.410Z,67.05
2023-05-10T10:06:50.441Z,67.08
2023-05-10T10:07:50.372Z,66.52
2023-05-10T10:08:50.361Z,66.95
2023-05-10T10:09:50.424Z,65.82
2023-05-10T10:10:53.167Z,64.48
2023-05-10T10:11:50.338Z,64.51
2023-05-10T10:12:50.326Z,65.62
2023-05-10T10:13:50.328Z,66.15
2023-05-10T10:14:50.334Z,65.75
2023-05-10T10:15:50.373Z,65.72
2023-05-10T10:17:05.732Z,65.75
2023-05-10T10:17:52.322Z,64.62
2023-05-10T10:18:50.324Z,64.09
2023-05-10T10:19:50.271Z,64.62
2023-05-10T10:20:50.653Z,64.22
2023-05-10T10:21:52.104Z,65.35
2023-05-10T10:22:50.246Z,66.38
2023-05-10T10:23:50.243Z,67.29
2023-05-10T10:24:50.238Z,66.55
2023-05-10T10:25:50.232Z,65.35
2023-05-10T10:26:50.257Z,66.02
2023-05-10T10:27:50.264Z,66.05
2023-05-10T10:28:50.289Z,65.65
2023-05-10T10:29:50.217Z,65.95
2023-05-10T10:30:50.211Z,66.15
2023-05-10T10:31:50.242Z,66.88
2023-05-10T10:32:50.250Z,64.65
2023-05-10T10:33:50.164Z,64.18
2023-05-10T10:34:51.051Z,63.89
2023-05-10T10:35:50.154Z,63.98
2023-05-10T10:36:50.151Z,63.89
2023-05-10T10:37:50.130Z,64.42
2023-05-10T10:38:50.144Z,64.42
2023-05-10T10:39:50.117Z,63.81
2023-05-10T10:40:50.112Z,64.81
2023-05-10T10:41:50.103Z,64.72
2023-05-10T10:42:50.102Z,64.59
2023-05-10T10:43:50.087Z,64.48
2023-05-10T10:44:50.082Z,64.09
2023-05-10T10:45:50.071Z,63.75
2023-05-10T10:46:50.091Z,62.12
2023-05-10T10:47:50.132Z,61.52
2023-05-10T10:48:50.049Z,61.69
2023-05-10T10:49:50.035Z,61.29
2023-05-10T10:50:50.074Z,61.54
2023-05-10T10:51:50.036Z,60.41
2023-05-10T10:52:50.046Z,60.71
2023-05-10T10:53:50.018Z,60.21
2023-05-10T10:54:50.003Z,59.08
2023-05-10T10:55:50.086Z,58.25
2023-05-10T10:56:49.991Z,57.95
2023-05-10T10:57:49.990Z,57.65
2023-05-10T10:58:49.986Z,58.36
2023-05-10T10:59:49.991Z,57.76
2023-05-10T11:00:50.016Z,58.28
2023-05-10T11:01:50.509Z,58.88
2023-05-10T11:02:50.055Z,58.48
2023-05-10T11:03:49.970Z,58.65
2023-05-10T11:04:50.261Z,58.75
2023-05-10T11:05:49.946Z,58.65
2023-05-10T11:06:49.960Z,58.28
2023-05-10T11:07:49.901Z,58.73
2023-05-10T11:08:50.899Z,59.31
2023-05-10T11:09:49.897Z,59.44
2023-05-10T11:10:49.900Z,58.71
2023-05-10T11:11:49.886Z,58.11
2023-05-10T11:12:49.876Z,57.11
2023-05-10T11:13:51.406Z,57.21
2023-05-10T11:14:51.547Z,57.74
2023-05-10T11:15:49.862Z,57.64
2023-05-10T11:16:49.926Z,57.41
2023-05-10T11:17:50.570Z,58.04
2023-05-10T11:18:50.334Z,59.36
2023-05-10T11:19:50.810Z,59.06
2023-05-10T11:20:49.787Z,58.73
2023-05-10T11:21:50.837Z,58.64
2023-05-10T11:22:49.783Z,58.21
2023-05-10T11:23:49.796Z,56.59
2023-05-10T11:24:50.206Z,56.88
2023-05-10T11:25:50.783Z,56.36
2023-05-10T11:26:49.763Z,55.04
2023-05-10T11:27:50.761Z,55.33
2023-05-10T11:28:50.562Z,56.66
2023-05-10T11:29:49.754Z,57.51
2023-05-10T11:30:49.772Z,57.41
2023-05-10T11:31:49.724Z,57.14
2023-05-10T11:32:49.739Z,57.14
2023-05-10T11:33:49.719Z,57.01
2023-05-10T11:34:49.699Z,57.04
2023-05-10T11:35:49.689Z,57.64
2023-05-10T11:36:49.692Z,56.59
2023-05-10T11:37:49.708Z,55.49
2023-05-10T11:38:50.670Z,55.88
2023-05-10T11:39:49.673Z,56.81
2023-05-10T11:40:49.657Z,56.41
2023-05-10T11:41:49.664Z,56.14
2023-05-10T11:42:49.668Z,57.67
2023-05-10T11:43:49.651Z,56.94
2023-05-10T11:44:49.630Z,56.71
2023-05-10T11:45:49.650Z,56.09
2023-05-10T11:46:49.696Z,54.27
2023-05-10T11:47:49.696Z,54.86
2023-05-10T11:48:49.613Z,55.09
2023-05-10T11:49:49.582Z,55.62
2023-05-10T11:50:49.578Z,55.02
2023-05-10T11:51:49.587Z,55.11
2023-05-10T11:52:49.578Z,55.41
2023-05-10T11:53:49.571Z,55.49
2023-05-10T11:54:49.555Z,56.74
2023-05-10T11:55:50.155Z,56.84
2023-05-10T11:56:50.030Z,56.94
2023-05-10T11:57:49.538Z,56.94
2023-05-10T11:58:49.514Z,56.77
2023-05-10T11:59:49.507Z,57.59
2023-05-10T12:00:51.156Z,57.46
2023-05-10T12:01:49.514Z,57.76
2023-05-10T12:02:49.539Z,58.29
2023-05-10T12:03:51.343Z,58.49
2023-05-10T12:04:49.563Z,56.87
2023-05-10T12:05:49.463Z,56.74
2023-05-10T12:06:49.538Z,56.96
2023-05-10T12:07:49.465Z,56.04
2023-05-10T12:08:49.459Z,55.32
2023-05-10T12:09:50.092Z,54.49
2023-05-10T12:10:49.458Z,54.79
2023-05-10T12:11:49.410Z,54.46
2023-05-10T12:12:49.421Z,54.41
2023-05-10T12:13:49.399Z,54.82
2023-05-10T12:14:49.429Z,55.94
2023-05-10T12:15:49.425Z,56.14
2023-05-10T12:16:50.448Z,55.14
2023-05-10T12:17:49.445Z,55.74
2023-05-10T12:18:49.475Z,55.17
2023-05-10T12:19:49.350Z,55.77
2023-05-10T12:20:49.348Z,56.27
2023-05-10T12:21:49.347Z,56.46
2023-05-10T12:22:49.348Z,56.64
2023-05-10T12:23:49.327Z,55.74
2023-05-10T12:24:49.327Z,55.81
2023-05-10T12:25:49.306Z,55.66
2023-05-10T12:26:49.313Z,54.86
2023-05-10T12:27:50.174Z,54.34
2023-05-10T12:28:49.288Z,52.94
2023-05-10T12:29:49.289Z,52.74
2023-05-10T12:30:49.269Z,53.47
2023-05-10T12:31:50.211Z,54.76
2023-05-10T12:32:50.303Z,54.86
2023-05-10T12:33:49.279Z,55.02
2023-05-10T12:34:49.236Z,55.21
2023-05-10T12:35:49.224Z,56.14
2023-05-10T12:36:49.217Z,56.87
2023-05-10T12:37:49.218Z,56.16
2023-05-10T12:38:50.177Z,56.14
2023-05-10T12:39:49.222Z,55.81
2023-05-10T12:40:49.268Z,55.81
2023-05-10T12:41:51.211Z,56.87
2023-05-10T12:42:49.270Z,56.84
2023-05-10T12:43:49.274Z,56.41
2023-05-10T12:44:49.186Z,55.11
2023-05-10T12:45:49.211Z,54.99
2023-05-10T12:46:49.282Z,54.39
2023-05-10T12:47:49.184Z,55.11
2023-05-10T12:48:49.760Z,55.24
2023-05-10T12:49:49.172Z,56.37
2023-05-10T12:50:51.122Z,56.59
2023-05-10T12:51:49.106Z,56.70
2023-05-10T12:52:49.110Z,57.22
2023-05-10T12:53:49.718Z,58.75
2023-05-10T12:54:50.093Z,59.38